createdAt,value
2018-11-12T00:00:35.749Z,22.60
2018-11-12T00:10:40.637Z,22.50
2018-11-12T00:20:45.313Z,22.50
2018-11-12T00:30:50.031Z,22.60
2018-11-12T00:40:54.800Z,22.50
2018-11-12T00:50:59.393Z,22.50
2018-11-12T01:01:04.591Z,22.50
2018-11-12T01:11:09.396Z,22.50
2018-11-12T01:21:14.169Z,22.50
2018-11-12T01:31:19.010Z,22.50
2018-11-12T01:41:23.731Z,22.60
2018-11-12T01:51:28.574Z,22.60
2018-11-12T02:01:33.312Z,22.50
2018-11-12T02:11:38.057Z,22.50
2018-11-12T02:21:42.926Z,22.50
2018-11-12T02:31:47.675Z,22.40
2018-11-12T02:41:52.405Z,22.40
2018-11-12T02:51:57.140Z,22.40
2018-11-12T03:02:01.845Z,22.40
2018-11-12T03:12:06.674Z,22.40
2018-11-12T03:22:11.312Z,22.40
2018-11-12T03:32:16.068Z,22.40
2018-11-12T03:42:21.448Z,22.40
2018-11-12T03:52:26.260Z,22.40
2018-11-12T04:02:30.846Z,22.40
2018-11-12T04:12:35.652Z,22.40
2018-11-12T04:22:41.323Z,22.40
2018-11-12T04:32:46.903Z,22.40
2018-11-12T04:42:52.025Z,22.40
2018-11-12T04:52:56.969Z,22.40
2018-11-12T05:03:02.191Z,22.40
2018-11-12T05:13:07.176Z,22.40
2018-11-12T05:23:12.049Z,22.40
2018-11-12T05:33:17.439Z,22.40
2018-11-12T05:43:22.076Z,22.40
2018-11-12T05:53:27.866Z,22.40
2018-11-12T06:03:32.579Z,22.40
2018-11-12T06:13:37.447Z,22.40
2018-11-12T06:23:42.083Z,22.40
2018-11-12T06:33:46.846Z,22.40
2018-11-12T06:43:51.540Z,22.40
2018-11-12T06:53:56.413Z,22.40
2018-11-12T07:04:01.281Z,22.40
2018-11-12T07:14:06.893Z,22.40
2018-11-12T07:24:11.679Z,22.40
2018-11-12T07:34:16.433Z,22.40
2018-11-12T07:44:21.173Z,22.40
2018-11-12T07:54:26.657Z,22.40
2018-11-12T08:04:31.679Z,22.40
2018-11-12T08:14:36.742Z,22.40
2018-11-12T08:24:41.446Z,22.40
2018-11-12T08:34:46.758Z,22.40
2018-11-12T08:44:51.777Z,22.40
2018-11-12T08:54:56.533Z,22.40
2018-11-12T09:05:01.285Z,22.40
2018-11-12T09:15:06.835Z,22.40
2018-11-12T09:25:14.224Z,22.40
2018-11-12T09:35:20.271Z,22.40
2018-11-12T09:45:25.817Z,22.50
2018-11-12T09:55:31.509Z,22.50
2018-11-12T10:05:37.296Z,22.50
2018-11-12T10:15:43.518Z,22.40
2018-11-12T10:25:45.674Z,22.50
2018-11-12T10:35:50.388Z,22.90
2018-11-12T10:45:55.999Z,22.80
2018-11-12T10:56:00.926Z,22.80
2018-11-12T11:06:06.591Z,22.80
2018-11-12T11:16:12.378Z,22.80
2018-11-12T11:26:17.366Z,22.80
2018-11-12T11:36:22.237Z,22.70
2018-11-12T11:46:27.905Z,22.70
2018-11-12T11:56:32.619Z,22.80
2018-11-12T12:06:37.476Z,22.80
2018-11-12T12:16:42.364Z,22.70
2018-11-12T12:26:47.143Z,22.80
2018-11-12T12:36:52.554Z,22.80
2018-11-12T12:46:57.312Z,22.80
2018-11-12T12:57:02.113Z,22.70
2018-11-12T13:07:07.065Z,22.50
2018-11-12T13:17:12.654Z,22.60
2018-11-12T13:27:18.068Z,22.70
2018-11-12T13:37:24.032Z,22.70
2018-11-12T13:47:31.575Z,22.90
2018-11-12T13:57:36.725Z,23.00
2018-11-12T14:07:42.396Z,23.10
2018-11-12T14:17:47.810Z,22.90
2018-11-12T14:27:54.224Z,23.00
2018-11-12T14:37:59.599Z,23.00
2018-11-12T14:48:04.340Z,23.10
2018-11-12T14:58:09.160Z,23.10
2018-11-12T15:08:14.033Z,22.90
2018-11-12T15:18:19.282Z,22.90
2018-11-12T15:28:25.569Z,22.90
2018-11-12T15:38:30.237Z,23.00
2018-11-12T15:48:35.971Z,23.10
2018-11-12T15:58:41.022Z,23.20
2018-11-12T16:08:45.807Z,23.20
2018-11-12T16:18:52.281Z,23.20
2018-11-12T16:28:57.240Z,23.20
2018-11-12T16:39:02.145Z,23.20
2018-11-12T16:49:07.355Z,23.20
2018-11-12T16:59:12.009Z,23.20
2018-11-12T17:09:17.140Z,23.20
2018-11-12T17:19:21.803Z,23.20
2018-11-12T17:29:26.596Z,23.20
2018-11-12T17:39:31.273Z,23.20
2018-11-12T17:49:36.872Z,23.20
2018-11-12T17:59:43.457Z,23.30
2018-11-12T18:09:48.241Z,23.30
2018-11-12T18:19:53.887Z,23.40
2018-11-12T18:29:59.611Z,23.60
2018-11-12T18:40:04.827Z,23.70
2018-11-12T18:50:13.307Z,23.90
2018-11-12T19:00:22.256Z,23.80
2018-11-12T19:10:29.423Z,23.20
2018-11-12T19:20:36.953Z,23.60
2018-11-12T19:30:45.988Z,23.50
2018-11-12T19:40:50.939Z,23.40
2018-11-12T19:50:56.388Z,23.50
2018-11-12T20:01:01.182Z,23.50
2018-11-12T20:11:06.450Z,23.50
2018-11-12T20:21:13.945Z,23.50
2018-11-12T20:31:18.681Z,23.50
2018-11-12T20:41:23.583Z,23.50
2018-11-12T20:51:28.443Z,23.50
2018-11-12T21:01:34.838Z,23.50
2018-11-12T21:11:40.075Z,23.50
2018-11-12T21:21:45.028Z,23.40
2018-11-12T21:31:49.748Z,23.40
2018-11-12T21:41:54.501Z,23.40
2018-11-12T21:51:59.830Z,23.50
2018-11-12T22:02:04.519Z,23.40
2018-11-12T22:12:09.114Z,23.40
2018-11-12T22:22:13.844Z,23.50
2018-11-12T22:32:18.681Z,23.60
2018-11-12T22:42:23.412Z,23.50
2018-11-12T22:52:28.940Z,23.50
2018-11-12T23:02:33.591Z,23.50
2018-11-12T23:12:38.437Z,23.40
2018-11-12T23:22:43.967Z,23.30
2018-11-12T23:32:48.620Z,23.20
2018-11-12T23:42:53.627Z,23.20
2018-11-12T23:52:58.238Z,23.10
